Time;durP1;ratioP1;P1;durP2;ratioP2;P2;SDS_P1;SDS_P2;PMS_P1;PMS_P2;Temp;Humidity;BMP_temperature;BMP_pressure;BME280_temperature;BME280_humidity;BME280_pressure;Samples;Min_cycle;Max_cycle;Signal;HPM_P1;HPM_P2
2024/02/24 00:01:21;;;;;;;;;28.67;21.00;;;;;8.68;100.00;99175.53;114654;241;39852;-49
2024/02/24 00:04:03;;;;;;;;;22.00;17.00;;;;;8.72;100.00;99175.61;114485;239;162110;-51
2024/02/24 00:06:36;;;;;;;;;25.33;19.00;;;;;8.65;100.00;99171.27;114570;241;39382;-51
2024/02/24 00:09:10;;;;;;;;;27.75;20.00;;;;;8.63;100.00;99167.09;114590;241;39804;-52
2024/02/24 00:11:44;;;;;;;;;22.75;17.00;;;;;8.64;100.00;99159.02;114398;239;162632;-52
2024/02/24 00:14:18;;;;;;;;;34.25;23.00;;;;;8.63;100.00;99160.45;114591;240;39207;-53
2024/02/24 00:16:52;;;;;;;;;24.00;18.00;;;;;8.56;100.00;99153.24;114421;239;162001;-52
2024/02/24 00:19:26;;;;;;;;;31.00;23.00;;;;;8.59;100.00;99154.70;114617;240;40770;-49
2024/02/24 00:22:00;;;;;;;;;27.00;17.67;;;;;8.65;100.00;99150.77;114522;239;162150;-49
2024/02/24 00:24:34;;;;;;;;;28.25;21.00;;;;;8.67;100.00;99148.20;114657;241;39340;-51
2024/02/24 00:27:08;;;;;;;;;30.25;20.75;;;;;8.69;100.00;99145.34;114552;241;40830;-52
2024/02/24 00:29:42;;;;;;;;;24.00;17.00;;;;;8.72;100.00;99148.57;114393;239;161642;-49
2024/02/24 00:32:15;;;;;;;;;26.00;18.75;;;;;8.72;100.00;99160.24;114591;241;41984;-49
2024/02/24 00:34:49;;;;;;;;;26.00;19.67;;;;;8.71;100.00;99146.59;114434;239;162107;-49
2024/02/24 00:37:23;;;;;;;;;19.75;15.50;;;;;8.75;100.00;99140.39;114579;240;39377;-49
2024/02/24 00:39:57;;;;;;;;;23.67;18.33;;;;;8.73;100.00;99131.17;114497;239;162432;-51
2024/02/24 00:42:31;;;;;;;;;35.00;25.00;;;;;8.75;100.00;99124.88;114563;241;39535;-51
2024/02/24 00:45:05;;;;;;;;;32.00;21.00;;;;;8.70;100.00;99125.58;114589;240;40750;-52
2024/02/24 00:47:38;;;;;;;;;28.00;19.00;;;;;8.69;100.00;99123.84;114459;239;162308;-53
2024/02/24 00:50:13;;;;;;;;;29.00;23.33;;;;;8.69;100.00;99124.47;114626;240;39225;-51
2024/02/24 00:52:46;;;;;;;;;21.00;16.00;;;;;8.60;100.00;99119.38;114488;239;162035;-52
2024/02/24 00:55:20;;;;;;;;;34.67;24.67;;;;;8.58;100.00;99114.81;114579;240;39203;-50
2024/02/24 00:57:54;;;;;;;;;38.00;27.00;;;;;8.54;100.00;99108.61;114470;239;162070;-50
2024/02/24 01:00:28;;;;;;;;;35.00;27.00;;;;;8.55;100.00;99113.79;114549;240;39193;-50
2024/02/24 01:03:01;;;;;;;;;25.50;20.00;;;;;8.53;100.00;99114.08;114567;240;39525;-50
2024/02/24 01:05:35;;;;;;;;;33.67;25.33;;;;;8.54;100.00;99111.09;114425;239;162159;-49
2024/02/24 01:08:10;;;;;;;;;30.25;23.00;;;;;8.55;100.00;99112.05;114582;240;41228;-49
2024/02/24 01:10:44;;;;;;;;;34.25;24.25;;;;;8.50;100.00;99108.23;114414;239;161927;-50
2024/02/24 01:13:18;;;;;;;;;28.75;21.50;;;;;8.48;100.00;99104.84;114540;240;40975;-50
2024/02/24 01:15:51;;;;;;;;;27.33;21.00;;;;;8.49;100.00;99100.98;114443;240;162094;-53
2024/02/24 01:18:27;;;;;;;;;26.75;20.00;;;;;8.47;100.00;99101.49;114557;240;38976;-53
2024/02/24 01:21:02;;;;;;;;;34.67;25.67;;;;;8.43;100.00;99097.64;114579;240;39551;-49
2024/02/24 01:23:37;;;;;;;;;32.75;25.00;;;;;8.45;100.00;99094.13;114413;239;161765;-50
2024/02/24 01:26:11;;;;;;;;;29.00;22.00;;;;;8.45;100.00;99092.09;114583;240;39670;-52
2024/02/24 01:28:48;;;;;;;;;32.00;25.00;;;;;8.46;100.00;99087.09;114442;239;161817;-50
2024/02/24 01:31:21;;;;;;;;;34.00;25.00;;;;;8.43;100.00;99089.64;114918;240;40616;-50
2024/02/24 01:33:55;;;;;;;;;28.00;21.00;;;;;8.37;100.00;99090.18;114789;239;162295;-52
2024/02/24 01:36:30;;;;;;;;;26.25;18.50;;;;;8.34;100.00;99086.67;114765;240;40188;-52
2024/02/24 01:39:04;;;;;;;;;24.75;18.25;;;;;8.36;100.00;99086.63;115009;240;40310;-50
2024/02/24 01:41:37;;;;;;;;;25.00;19.00;;;;;8.35;100.00;99085.52;114474;239;161783;-50
2024/02/24 01:44:11;;;;;;;;;27.00;18.00;;;;;8.32;100.00;99085.80;115015;240;39881;-50
2024/02/24 01:46:45;;;;;;;;;27.00;20.00;;;;;8.29;100.00;99084.89;114600;240;162039;-50
2024/02/24 01:49:19;;;;;;;;;39.75;28.00;;;;;8.29;100.00;99089.48;114914;240;39246;-50
2024/02/24 01:51:53;;;;;;;;;29.75;21.00;;;;;8.26;100.00;99077.20;114774;239;162060;-49
2024/02/24 01:54:28;;;;;;;;;30.33;22.33;;;;;8.31;100.00;99069.02;114758;240;39710;-49
2024/02/24 01:57:02;;;;;;;;;29.50;22.25;;;;;8.33;100.00;99068.91;115026;240;39778;-49
2024/02/24 01:59:36;;;;;;;;;30.00;23.00;;;;;8.37;100.00;99061.88;114406;239;161785;-50
2024/02/24 02:02:10;;;;;;;;;33.00;21.00;;;;;8.37;100.00;99067.38;114563;240;40461;-50
2024/02/24 02:04:45;;;;;;;;;26.00;19.25;;;;;8.39;100.00;99060.21;114461;239;162790;-52
2024/02/24 02:07:19;;;;;;;;;31.50;23.25;;;;;8.36;100.00;99057.57;114564;240;40475;-52
2024/02/24 02:09:59;;;;;;;;;31.75;23.00;;;;;8.37;100.00;99058.64;114422;239;162138;-52
2024/02/24 02:12:35;;;;;;;;;26.00;19.33;;;;;8.36;100.00;99058.90;114564;240;39981;-54
2024/02/24 02:15:11;;;;;;;;;24.25;18.00;;;;;8.35;100.00;99055.58;114602;240;39015;-53
2024/02/24 02:17:45;;;;;;;;;27.00;21.00;;;;;8.30;100.00;99040.55;114436;239;162192;-53
2024/02/24 02:20:19;;;;;;;;;25.50;20.00;;;;;8.36;100.00;99040.02;114591;240;39260;-49
2024/02/24 02:22:53;;;;;;;;;27.25;21.00;;;;;8.37;100.00;99039.08;114471;239;161960;-49
2024/02/24 02:25:26;;;;;;;;;33.00;25.00;;;;;8.36;100.00;99028.52;114600;240;39787;-52
2024/02/24 02:28:00;;;;;;;;;27.00;21.00;;;;;8.33;100.00;99029.46;114456;239;162009;-52
2024/02/24 02:30:34;;;;;;;;;23.67;19.00;;;;;8.33;100.00;99027.48;114567;240;39713;-52
2024/02/24 02:33:09;;;;;;;;;29.00;19.00;;;;;8.33;100.00;99025.33;114515;240;39076;-52
2024/02/24 02:35:42;;;;;;;;;30.25;23.00;;;;;8.31;100.00;99030.55;114402;239;162733;-49
2024/02/24 02:38:16;;;;;;;;;27.00;19.67;;;;;8.27;100.00;99035.28;114564;240;40339;-49
2024/02/24 02:40:50;;;;;;;;;28.25;19.00;;;;;8.24;100.00;99030.55;114445;239;162102;-49
2024/02/24 02:43:24;;;;;;;;;33.75;23.50;;;;;8.24;100.00;99036.17;114557;240;40779;-49
2024/02/24 02:45:58;;;;;;;;;32.75;22.00;;;;;8.22;100.00;99029.69;114457;239;162034;-52
2024/02/24 02:48:31;;;;;;;;;26.00;20.00;;;;;8.22;100.00;99020.45;114566;240;40166;-51
2024/02/24 02:51:05;;;;;;;;;31.00;22.00;;;;;8.27;100.00;99014.35;114561;240;39736;-52
2024/02/24 02:53:40;;;;;;;;;22.75;17.00;;;;;8.27;100.00;99018.95;114414;239;162391;-53
2024/02/24 02:56:20;;;;;;;;;29.00;23.00;;;;;8.30;100.00;99018.71;114579;240;40782;-50
2024/02/24 02:58:54;;;;;;;;;23.00;18.00;;;;;8.28;100.00;99018.24;114427;239;162019;-51
2024/02/24 03:01:28;;;;;;;;;31.50;25.00;;;;;8.23;100.00;99010.23;114565;240;40777;-51
2024/02/24 03:04:02;;;;;;;;;22.00;17.00;;;;;8.24;100.00;98999.66;114372;241;162057;-53
2024/02/24 03:06:36;;;;;;;;;21.00;16.00;;;;;8.28;100.00;98991.55;114579;240;39285;-53
2024/02/24 03:09:10;;;;;;;;;23.50;18.25;;;;;8.23;100.00;98982.30;114611;240;40957;-53
2024/02/24 03:11:44;;;;;;;;;19.75;14.75;;;;;8.20;100.00;98987.56;114441;239;161790;-52
2024/02/24 03:14:18;;;;;;;;;27.50;18.50;;;;;8.14;100.00;98985.75;114623;240;39910;-49
2024/02/24 03:16:53;;;;;;;;;25.67;20.00;;;;;8.18;100.00;98983.42;114436;239;161994;-49
2024/02/24 03:19:28;;;;;;;;;30.75;20.25;;;;;8.17;100.00;98981.17;114593;240;40286;-50
2024/02/24 03:22:02;;;;;;;;;18.50;15.00;;;;;8.14;100.00;98983.42;114454;240;161990;-49
2024/02/24 03:24:36;;;;;;;;;28.50;21.75;;;;;8.11;100.00;99001.17;114589;240;39805;-53
2024/02/24 03:27:10;;;;;;;;;20.33;15.67;;;;;8.12;100.00;99023.27;114607;240;40101;-53
2024/02/24 03:29:44;;;;;;;;;31.75;24.25;;;;;8.13;100.00;99027.14;114439;239;161497;-52
2024/02/24 03:32:18;;;;;;;;;23.00;17.00;;;;;8.09;100.00;99021.79;114610;240;40933;-52
2024/02/24 03:34:52;;;;;;;;;29.00;22.00;;;;;8.11;100.00;99020.21;114409;239;161991;-50
2024/02/24 03:37:25;;;;;;;;;26.25;20.25;;;;;8.15;100.00;99021.13;114588;240;39400;-50
2024/02/24 03:39:59;;;;;;;;;38.00;27.00;;;;;8.11;100.00;99017.11;114474;239;161986;-50
2024/02/24 03:42:34;;;;;;;;;24.33;19.00;;;;;8.15;100.00;99012.52;114565;240;39548;-50
2024/02/24 03:45:10;;;;;;;;;24.00;19.00;;;;;8.13;100.00;99007.85;114592;240;40180;-49
2024/02/24 03:47:43;;;;;;;;;23.00;17.75;;;;;8.14;100.00;99005.81;114428;239;161707;-49
2024/02/24 03:50:17;;;;;;;;;34.75;26.50;;;;;8.17;100.00;99007.80;114595;240;41100;-52
2024/02/24 03:52:51;;;;;;;;;25.50;18.75;;;;;8.14;100.00;99008.38;114428;239;161995;-52
2024/02/24 03:55:25;;;;;;;;;22.25;18.00;;;;;8.12;100.00;99015.45;114590;240;40970;-51
2024/02/24 03:57:59;;;;;;;;;28.00;21.00;;;;;8.13;100.00;99010.48;114473;240;162144;-51
2024/02/24 04:00:34;;;;;;;;;30.00;21.67;;;;;8.13;100.00;99003.71;114550;240;41080;-54
2024/02/24 04:03:08;;;;;;;;;25.00;19.00;;;;;8.09;100.00;99000.98;114613;240;40237;-54
2024/02/24 04:05:42;;;;;;;;;30.00;22.00;;;;;8.06;100.00;99007.67;114390;239;162236;-53
2024/02/24 04:08:16;;;;;;;;;20.33;16.33;;;;;8.04;100.00;98999.30;114599;240;40495;-53
2024/02/24 04:10:50;;;;;;;;;29.00;22.25;;;;;8.07;100.00;99003.91;114421;239;161649;-51
2024/02/24 04:13:24;;;;;;;;;33.50;25.00;;;;;8.10;100.00;99011.56;113983;240;667576;-51
2024/02/24 04:15:58;;;;;;;;;30.67;23.67;;;;;8.06;100.00;99006.27;114443;239;162651;-51
2024/02/24 04:18:32;;;;;;;;;27.25;19.75;;;;;8.04;100.00;99005.77;114544;240;39655;-51
2024/02/24 04:21:06;;;;;;;;;25.75;20.25;;;;;8.02;100.00;99008.55;114606;240;40648;-54
2024/02/24 04:23:43;;;;;;;;;31.75;24.75;;;;;8.04;100.00;99005.52;114439;239;161677;-54
2024/02/24 04:26:17;;;;;;;;;32.00;23.50;;;;;8.04;100.00;99003.45;114579;240;41196;-54
2024/02/24 04:28:51;;;;;;;;;24.50;18.50;;;;;8.05;100.00;99008.29;114442;240;161973;-53
2024/02/24 04:31:24;;;;;;;;;30.00;21.67;;;;;8.01;100.00;99009.09;114597;240;39355;-53
2024/02/24 04:33:58;;;;;;;;;30.25;22.00;;;;;8.02;100.00;99008.88;114470;239;161997;-53
2024/02/24 04:36:32;;;;;;;;;29.00;19.50;;;;;8.08;100.00;99006.64;114572;240;41200;-54
2024/02/24 04:39:06;;;;;;;;;24.50;18.50;;;;;8.08;100.00;99002.14;114592;240;41068;-51
2024/02/24 04:41:40;;;;;;;;;22.50;17.75;;;;;8.09;100.00;98998.16;114391;239;161953;-51
2024/02/24 04:44:14;;;;;;;;;23.00;17.50;;;;;8.08;100.00;98993.45;114576;240;39767;-50
2024/02/24 04:46:49;;;;;;;;;23.67;18.00;;;;;8.06;100.00;98993.32;114445;239;161681;-50
2024/02/24 04:49:22;;;;;;;;;29.00;21.00;;;;;8.07;100.00;98990.17;114602;240;41189;-54
2024/02/24 04:51:56;;;;;;;;;28.33;21.00;;;;;8.09;100.00;98993.43;114449;239;161999;-54
2024/02/24 04:54:30;;;;;;;;;24.25;16.00;;;;;8.10;100.00;98986.36;114572;240;39464;-53
2024/02/24 04:57:04;;;;;;;;;29.50;21.00;;;;;8.07;100.00;98987.11;114591;240;40930;-54
2024/02/24 04:59:38;;;;;;;;;23.00;17.67;;;;;8.01;100.00;98987.20;114414;240;161697;-54
2024/02/24 05:02:12;;;;;;;;;24.33;19.00;;;;;8.04;100.00;98975.36;114601;240;40867;-54
2024/02/24 05:04:45;;;;;;;;;28.25;23.00;;;;;8.04;100.00;98976.48;114425;240;161470;-53
2024/02/24 05:07:19;;;;;;;;;29.25;22.75;;;;;8.04;100.00;98976.07;114557;241;40528;-53
2024/02/24 05:09:53;;;;;;;;;22.67;15.67;;;;;8.00;100.00;98975.98;114470;239;162354;-52
2024/02/24 05:12:27;;;;;;;;;21.75;16.25;;;;;7.98;100.00;98970.45;114557;240;40071;-51
2024/02/24 05:15:01;;;;;;;;;31.00;24.00;;;;;7.93;100.00;98965.27;114584;240;39399;-53
2024/02/24 05:17:34;;;;;;;;;28.25;21.75;;;;;7.96;100.00;98959.81;114426;239;161825;-52
2024/02/24 05:20:10;;;;;;;;;25.00;19.00;;;;;7.94;100.00;98950.64;114593;240;39979;-51
2024/02/24 05:22:44;;;;;;;;;25.00;19.00;;;;;7.93;100.00;98947.41;114414;239;161840;-50
2024/02/24 05:25:17;;;;;;;;;29.00;23.00;;;;;7.91;100.00;98948.94;114555;240;40909;-50
2024/02/24 05:27:51;;;;;;;;;23.00;17.00;;;;;7.96;100.00;98955.30;114475;239;162147;-50
2024/02/24 05:30:25;;;;;;;;;28.00;21.00;;;;;7.97;100.00;98950.67;114555;240;39472;-50
2024/02/24 05:32:59;;;;;;;;;28.00;21.00;;;;;7.95;100.00;98947.73;114609;240;40268;-50
2024/02/24 05:35:32;;;;;;;;;21.75;17.00;;;;;7.98;100.00;98938.38;114506;239;161604;-51
2024/02/24 05:38:07;;;;;;;;;21.25;14.50;;;;;8.01;100.00;98936.11;114637;240;40731;-50
2024/02/24 05:40:40;;;;;;;;;26.50;20.00;;;;;7.97;100.00;98947.45;114430;239;162508;-50
2024/02/24 05:43:14;;;;;;;;;25.00;17.50;;;;;7.93;100.00;98950.13;114618;240;41204;-50
2024/02/24 05:45:48;;;;;;;;;26.00;19.75;;;;;7.88;100.00;98946.73;114477;239;184001;-52
2024/02/24 05:48:22;;;;;;;;;36.00;25.00;;;;;7.91;100.00;98947.16;114537;240;41045;-53
2024/02/24 05:50:56;;;;;;;;;23.75;16.50;;;;;7.90;100.00;98952.91;114618;240;40583;-51
2024/02/24 05:53:31;;;;;;;;;20.33;17.33;;;;;7.91;100.00;98942.48;114423;239;161908;-51
2024/02/24 05:56:05;;;;;;;;;21.00;17.00;;;;;7.92;100.00;98947.55;114587;240;39410;-50
2024/02/24 05:58:39;;;;;;;;;22.00;16.00;;;;;7.94;100.00;98951.26;114424;239;162043;-50
2024/02/24 06:01:14;;;;;;;;;30.00;22.00;;;;;7.93;100.00;98952.09;114562;240;39898;-50
2024/02/24 06:03:47;;;;;;;;;23.00;17.00;;;;;7.94;100.00;98948.74;114423;239;162239;-50
2024/02/24 06:06:21;;;;;;;;;22.25;17.25;;;;;7.93;100.00;98952.62;114585;240;39593;-52
2024/02/24 06:08:55;;;;;;;;;21.00;16.00;;;;;7.94;100.00;98952.48;114588;240;39470;-51
2024/02/24 06:11:29;;;;;;;;;19.25;14.75;;;;;7.95;100.00;98945.42;114394;239;161868;-51
2024/02/24 06:14:02;;;;;;;;;20.00;15.00;;;;;7.93;100.00;98951.92;114616;240;40019;-48
2024/02/24 06:16:36;;;;;;;;;24.50;18.75;;;;;7.95;100.00;98942.77;114447;240;161622;-49
2024/02/24 06:19:10;;;;;;;;;22.50;16.25;;;;;7.95;100.00;98944.30;114581;240;39051;-51
2024/02/24 06:21:44;;;;;;;;;22.00;16.00;;;;;7.95;100.00;98940.86;114471;239;161687;-51
2024/02/24 06:24:18;;;;;;;;;20.25;16.00;;;;;7.97;100.00;98942.15;114565;240;40698;-49
2024/02/24 06:26:52;;;;;;;;;17.00;13.00;;;;;7.98;100.00;98948.15;114623;240;41342;-49
2024/02/24 06:29:25;;;;;;;;;18.33;15.00;;;;;8.01;100.00;98941.08;114410;239;162761;-52
2024/02/24 06:31:59;;;;;;;;;24.75;19.50;;;;;8.00;100.00;98948.77;114581;240;39227;-52
2024/02/24 06:34:33;;;;;;;;;23.33;17.00;;;;;8.03;100.00;98950.38;114462;239;162195;-51
2024/02/24 06:37:07;;;;;;;;;21.75;16.75;;;;;8.06;100.00;98951.53;114597;240;39150;-52
2024/02/24 06:39:41;;;;;;;;;18.33;14.67;;;;;8.05;100.00;98947.69;114452;239;161830;-54
2024/02/24 06:42:15;;;;;;;;;20.00;15.00;;;;;8.08;100.00;98955.38;114520;240;41343;-54
2024/02/24 06:44:49;;;;;;;;;20.75;14.25;;;;;8.09;100.00;98951.11;114604;240;41297;-53
2024/02/24 06:47:23;;;;;;;;;20.00;17.00;;;;;8.11;100.00;98951.98;114407;239;161543;-54
2024/02/24 06:49:56;;;;;;;;;15.50;11.50;;;;;8.13;100.00;98949.61;114587;240;39376;-50
2024/02/24 06:52:30;;;;;;;;;18.00;13.50;;;;;8.14;100.00;98952.96;114430;239;161854;-49
2024/02/24 06:55:04;;;;;;;;;17.00;14.00;;;;;8.13;100.00;98953.02;114557;240;38648;-51
2024/02/24 06:57:38;;;;;;;;;17.25;13.00;;;;;8.16;100.00;98957.06;114456;239;161659;-50
2024/02/24 07:00:14;;;;;;;;;19.00;15.00;;;;;8.20;100.00;98959.45;114547;240;40053;-50
2024/02/24 07:02:48;;;;;;;;;16.25;13.50;;;;;8.19;100.00;98961.77;114570;240;40085;-50
2024/02/24 07:05:23;;;;;;;;;16.33;13.00;;;;;8.19;100.00;98960.29;114435;239;162338;-52
2024/02/24 07:07:56;;;;;;;;;21.00;17.00;;;;;8.16;100.00;98957.73;114574;240;39992;-51
2024/02/24 07:10:30;;;;;;;;;17.00;14.00;;;;;8.18;100.00;98957.23;114426;240;161676;-50
2024/02/24 07:13:04;;;;;;;;;16.00;13.00;;;;;8.20;100.00;98962.15;114594;240;40199;-50
2024/02/24 07:15:38;;;;;;;;;13.00;10.00;;;;;8.21;100.00;98969.77;114504;239;161957;-53
2024/02/24 07:18:12;;;;;;;;;20.00;16.00;;;;;8.23;100.00;98965.67;114588;240;40704;-53
2024/02/24 07:20:47;;;;;;;;;15.00;11.75;;;;;8.24;100.00;98958.55;114587;240;41040;-51
2024/02/24 07:23:20;;;;;;;;;17.00;13.75;;;;;8.29;100.00;98957.36;114457;239;161813;-51
2024/02/24 07:25:54;;;;;;;;;20.00;14.00;;;;;8.34;100.00;98955.91;114589;240;39338;-49
2024/02/24 07:28:28;;;;;;;;;18.00;13.33;;;;;8.36;100.00;98962.81;114405;240;161856;-50
2024/02/24 07:31:03;;;;;;;;;22.00;17.00;;;;;8.34;100.00;98954.70;114575;240;40846;-49
2024/02/24 07:33:37;;;;;;;;;16.25;13.50;;;;;8.36;100.00;98976.81;114452;239;162026;-49
2024/02/24 07:36:11;;;;;;;;;15.00;11.00;;;;;8.38;100.00;98969.56;114560;240;41089;-49
2024/02/24 07:38:45;;;;;;;;;19.00;15.00;;;;;8.38;99.99;98974.23;114580;240;40504;-50
2024/02/24 07:41:19;;;;;;;;;18.33;14.33;;;;;8.41;100.00;98974.02;114426;239;161740;-50
2024/02/24 07:43:52;;;;;;;;;23.00;16.00;;;;;8.44;100.00;98987.40;114589;240;40097;-54
2024/02/24 07:46:29;;;;;;;;;16.00;12.00;;;;;8.45;100.00;98984.95;114449;239;162168;-54
2024/02/24 07:49:03;;;;;;;;;19.25;15.00;;;;;8.44;99.70;98994.51;114580;240;40834;-52
2024/02/24 07:51:38;;;;;;;;;17.00;14.00;;;;;8.48;99.64;99004.23;114442;240;162480;-53
2024/02/24 07:54:13;;;;;;;;;16.00;12.00;;;;;8.49;99.54;98997.98;114589;240;39518;-52
2024/02/24 07:56:47;;;;;;;;;14.00;10.00;;;;;8.54;99.60;99003.02;114613;240;39951;-52
2024/02/24 07:59:20;;;;;;;;;17.00;14.00;;;;;8.59;99.72;99003.96;114435;240;162335;-49
2024/02/24 08:01:54;;;;;;;;;24.50;20.00;;;;;8.63;99.29;99009.67;114531;240;40613;-49
2024/02/24 08:04:28;;;;;;;;;15.25;11.00;;;;;8.61;99.18;99004.34;114463;239;161620;-50
2024/02/24 08:07:04;;;;;;;;;15.67;12.00;;;;;8.64;99.17;99015.09;114568;240;39416;-51
2024/02/24 08:09:39;;;;;;;;;19.00;15.00;;;;;8.67;98.90;99003.24;114462;239;161829;-51
2024/02/24 08:12:13;;;;;;;;;15.00;12.00;;;;;8.70;98.65;99009.02;114539;240;40703;-51
2024/02/24 08:14:47;;;;;;;;;15.00;12.00;;;;;8.74;98.95;99009.56;114605;240;39735;-49
2024/02/24 08:17:21;;;;;;;;;16.50;11.75;;;;;8.77;98.87;99005.48;114429;239;162077;-49
2024/02/24 08:19:55;;;;;;;;;21.00;17.00;;;;;8.78;98.80;99008.59;114626;240;41041;-52
2024/02/24 08:22:28;;;;;;;;;15.25;11.75;;;;;8.84;98.88;99013.95;114417;239;161986;-53
2024/02/24 08:25:02;;;;;;;;;20.25;17.00;;;;;8.86;98.80;99012.99;114599;240;40072;-50
2024/02/24 08:27:36;;;;;;;;;17.00;13.00;;;;;8.89;98.69;99018.74;114445;239;161750;-50
2024/02/24 08:30:15;;;;;;;;;22.00;18.00;;;;;8.94;98.27;99025.54;114604;241;39392;-53
2024/02/24 08:32:49;;;;;;;;;25.00;20.00;;;;;8.94;98.21;99024.91;114641;241;41140;-53
2024/02/24 08:35:24;;;;;;;;;18.25;16.00;;;;;8.89;97.99;99023.77;114439;239;162102;-51
2024/02/24 08:37:58;;;;;;;;;21.50;17.75;;;;;8.86;97.96;99034.21;114578;241;40128;-53
2024/02/24 08:40:33;;;;;;;;;24.00;20.00;;;;;8.86;97.98;99033.70;114407;240;161597;-50
2024/02/24 08:43:08;;;;;;;;;19.00;14.00;;;;;8.87;98.21;99034.83;114583;241;39208;-60
2024/02/24 08:45:43;;;;;;;;;18.00;14.00;;;;;8.92;97.99;99041.35;114493;241;161365;-54
2024/02/24 08:48:18;;;;;;;;;13.50;9.50;;;;;8.99;97.86;99043.79;114598;242;39847;-49
2024/02/24 08:50:53;;;;;;;;;17.25;15.00;;;;;9.06;97.68;99053.38;114575;242;38897;-50
2024/02/24 08:53:28;;;;;;;;;20.75;15.00;;;;;9.11;97.53;99059.11;114409;239;162211;-49
2024/02/24 08:56:06;;;;;;;;;20.67;14.00;;;;;9.17;97.55;99065.56;114579;242;39454;-50
2024/02/24 08:58:40;;;;;;;;;20.00;14.67;;;;;9.21;97.51;99069.13;114463;239;161008;-51
2024/02/24 09:01:16;;;;;;;;;11.75;9.50;;;;;9.21;97.50;99085.40;114613;241;40391;-53
2024/02/24 09:03:51;;;;;;;;;19.75;16.00;;;;;9.23;97.42;99089.76;114455;239;160730;-52
2024/02/24 09:06:25;;;;;;;;;20.00;16.00;;;;;9.26;97.29;99102.14;114558;241;40679;-53
2024/02/24 09:09:00;;;;;;;;;15.33;13.00;;;;;9.26;97.38;99104.23;114612;241;39246;-51
2024/02/24 09:11:34;;;;;;;;;17.00;13.00;;;;;9.30;97.14;99105.52;114418;239;162485;-51
2024/02/24 09:14:09;;;;;;;;;14.00;11.00;;;;;9.37;96.95;99107.90;114591;241;39450;-50
2024/02/24 09:16:43;;;;;;;;;19.50;14.75;;;;;9.47;96.67;99107.98;114454;239;161629;-50
2024/02/24 09:19:19;;;;;;;;;19.00;16.00;;;;;9.54;96.57;99115.30;114601;241;39402;-53
2024/02/24 09:21:54;;;;;;;;;17.00;13.00;;;;;9.64;96.30;99127.20;114452;239;161478;-53
2024/02/24 09:24:29;;;;;;;;;14.75;11.00;;;;;9.68;96.10;99136.43;114591;241;40030;-52
2024/02/24 09:27:03;;;;;;;;;13.00;11.00;;;;;9.71;96.19;99142.35;114598;241;40990;-52
2024/02/24 09:29:37;;;;;;;;;16.25;13.00;;;;;9.77;96.04;99148.80;114435;239;161212;-50
2024/02/24 09:32:12;;;;;;;;;21.00;18.00;;;;;9.86;96.33;99144.72;114602;241;39997;-50
2024/02/24 09:34:47;;;;;;;;;16.75;14.00;;;;;10.00;96.06;99148.48;114449;239;161817;-52
2024/02/24 09:37:21;;;;;;;;;19.25;15.00;;;;;10.10;95.93;99151.11;114576;241;40229;-55
2024/02/24 09:39:55;;;;;;;;;19.25;15.50;;;;;10.20;95.67;99151.20;114501;239;161355;-50
2024/02/24 09:42:31;;;;;;;;;22.00;17.00;;;;;10.28;95.48;99160.38;114571;241;42502;-52
2024/02/24 09:45:11;;;;;;;;;19.50;15.50;;;;;10.28;94.91;99157.84;114607;241;39666;-55
2024/02/24 09:47:47;;;;;;;;;24.50;18.00;;;;;10.27;94.94;99157.70;114430;239;160833;-54
2024/02/24 09:50:20;;;;;;;;;18.33;15.00;;;;;10.25;94.92;99159.11;114589;241;39527;-51
2024/02/24 09:52:54;;;;;;;;;13.50;10.50;;;;;10.24;94.95;99162.39;114436;239;161240;-51
2024/02/24 09:55:30;;;;;;;;;15.00;12.00;;;;;10.25;94.91;99171.60;114593;241;39300;-54
2024/02/24 09:58:06;;;;;;;;;18.00;14.00;;;;;10.35;94.91;99179.84;114466;241;161952;-54
2024/02/24 10:00:40;;;;;;;;;16.00;14.25;;;;;10.42;94.94;99178.48;114575;241;41409;-51
2024/02/24 10:03:14;;;;;;;;;17.25;13.00;;;;;10.55;95.07;99181.95;114632;241;39477;-51
2024/02/24 10:05:52;;;;;;;;;15.00;13.00;;;;;10.70;94.96;99187.61;114542;242;40222;-53
2024/02/24 10:08:27;;;;;;;;;18.67;15.67;;;;;10.83;95.10;99180.15;114571;242;40048;-52
2024/02/24 10:11:01;;;;;;;;;19.75;15.75;;;;;11.27;95.80;99179.48;114434;239;161190;-50
2024/02/24 10:13:38;;;;;;;;;22.50;17.25;;;;;11.89;95.80;99182.22;114605;241;39657;-50
2024/02/24 10:16:13;;;;;;;;;14.00;11.00;;;;;12.09;94.91;99180.27;114495;242;161581;-50
2024/02/24 10:18:47;;;;;;;;;15.50;13.00;;;;;12.20;94.12;99184.90;114540;241;39219;-51
2024/02/24 10:21:22;;;;;;;;;14.50;11.25;;;;;12.46;93.44;99182.48;114558;241;40504;-50
2024/02/24 10:23:56;;;;;;;;;14.25;12.00;;;;;12.71;92.82;99189.26;114546;242;39824;-53
2024/02/24 10:26:31;;;;;;;;;16.00;13.00;;;;;12.77;92.25;99197.48;114602;242;39453;-54
2024/02/24 10:29:09;;;;;;;;;14.75;12.00;;;;;12.91;91.68;99199.36;114433;239;161251;-53
2024/02/24 10:31:43;;;;;;;;;13.67;11.00;;;;;12.99;91.37;99210.63;114575;241;39933;-53
2024/02/24 10:34:17;;;;;;;;;16.00;12.50;;;;;13.04;91.15;99213.08;114542;241;161103;-50
2024/02/24 10:36:53;;;;;;;;;10.00;9.00;;;;;12.88;89.22;99219.23;114573;242;39156;-51
2024/02/24 10:39:33;;;;;;;;;10.00;8.00;;;;;12.66;87.98;99225.10;114429;239;160946;-54
2024/02/24 10:42:08;;;;;;;;;9.25;8.00;;;;;12.34;86.85;99234.02;114584;242;39660;-53
2024/02/24 10:44:44;;;;;;;;;8.00;7.00;;;;;12.16;86.70;99242.65;114634;242;40607;-54
2024/02/24 10:47:21;;;;;;;;;7.00;7.00;;;;;11.91;86.21;99252.10;114439;239;161099;-54
2024/02/24 10:49:55;;;;;;;;;6.00;6.00;;;;;11.72;86.06;99251.30;114635;242;40102;-53
2024/02/24 10:52:31;;;;;;;;;6.00;5.00;;;;;11.60;84.98;99253.89;114462;239;161183;-53
2024/02/24 10:55:06;;;;;;;;;8.00;6.00;;;;;11.57;85.02;99266.56;114588;241;41280;-54
2024/02/24 10:57:41;;;;;;;;;3.00;2.50;;;;;11.52;84.65;99274.35;114438;239;161091;-54
2024/02/24 11:00:35;;;;;;;;;2.00;2.00;;;;;11.47;83.75;99276.47;114569;241;40686;-53
2024/02/24 11:03:12;;;;;;;;;6.00;5.00;;;;;11.58;85.00;99276.65;114543;242;41200;-53
2024/02/24 11:05:51;;;;;;;;;5.00;4.00;;;;;11.78;85.60;99285.60;114425;239;160463;-54
2024/02/24 11:08:43;;;;;;;;;3.00;3.00;;;;;11.91;85.21;99292.30;114530;242;39517;-53
2024/02/24 11:11:17;;;;;;;;;8.00;6.00;;;;;11.80;83.65;99311.13;114421;239;161331;-51
2024/02/24 11:13:53;;;;;;;;;9.00;8.00;;;;;11.54;84.80;99323.97;114553;242;40324;-51
2024/02/24 11:16:27;;;;;;;;;8.33;7.67;;;;;11.40;85.44;99330.41;114470;239;160638;-51
2024/02/24 11:19:01;;;;;;;;;8.00;7.00;;;;;11.25;84.99;99341.47;114593;242;41301;-54
2024/02/24 11:22:05;;;;;;;;;9.50;8.50;;;;;11.00;85.59;99345.05;114467;239;161740;-54
2024/02/24 11:24:41;;;;;;;;;11.25;9.50;;;;;10.88;85.46;99347.37;114590;241;39160;-55
2024/02/24 11:27:16;;;;;;;;;10.50;9.00;;;;;10.80;85.37;99350.25;114569;242;41525;-56
2024/02/24 11:29:50;;;;;;;;;10.75;9.75;;;;;10.71;85.75;99358.80;114533;241;40539;-53
2024/02/24 11:32:26;;;;;;;;;6.67;5.00;;;;;10.64;85.82;99365.04;114602;242;39398;-52
2024/02/24 11:35:00;;;;;;;;;8.00;6.67;;;;;10.58;85.77;99371.67;114264;241;160931;-51
2024/02/24 11:37:35;;;;;;;;;5.25;4.00;;;;;10.46;85.75;99384.68;114544;242;39601;-50
2024/02/24 11:40:12;;;;;;;;;8.00;6.00;;;;;10.48;85.76;99397.02;114575;241;161874;-51
2024/02/24 11:42:48;;;;;;;;;5.25;4.00;;;;;10.67;85.80;99402.14;114641;242;39510;-51
2024/02/24 11:45:23;;;;;;;;;8.00;7.00;;;;;10.81;85.23;99412.77;114605;242;40798;-53
2024/02/24 11:47:57;;;;;;;;;8.50;6.50;;;;;10.77;84.26;99412.69;114528;242;39696;-52
2024/02/24 11:50:31;;;;;;;;;8.00;6.00;;;;;10.68;84.40;99421.90;114610;242;40139;-51